Time;durP1;ratioP1;P1;durP2;ratioP2;P2;SDS_P1;SDS_P2;PMS_P1;PMS_P2;Temp;Humidity;BMP_temperature;BMP_pressure;BME280_temperature;BME280_humidity;BME280_pressure;Samples;Min_cycle;Max_cycle;Signal;HPM_P1;HPM_P2
2023/09/19 00:00:19;;;;;;;24.30;10.60;;;;;;;19.39;43.43;100041.98;78282;1295;3053709;-77
2023/09/19 00:03:01;;;;;;;16.10;7.90;;;;;;;19.39;43.20;100044.45;79604;1297;3013625;-77
2023/09/19 00:05:29;;;;;;;14.90;7.50;;;;;;;19.40;43.21;100046.39;78585;1298;3057037;-76
2023/09/19 00:08:00;;;;;;;13.40;6.60;;;;;;;19.38;43.30;100046.17;79619;1294;3013326;-77
2023/09/19 00:10:30;;;;;;;9.10;5.80;;;;;;;19.37;43.10;100044.14;78297;1295;3049050;-74
2023/09/19 00:12:59;;;;;;;8.40;5.80;;;;;;;19.37;43.17;100042.77;79645;1298;3011503;-76
2023/09/19 00:15:29;;;;;;;7.30;5.30;;;;;;;19.37;43.22;100043.99;78502;1300;3052667;-75
2023/09/19 00:17:57;;;;;;;10.20;5.80;;;;;;;19.37;43.29;100041.11;79916;1295;3011640;-76
2023/09/19 00:20:26;;;;;;;13.10;7.00;;;;;;;19.36;43.42;100043.55;78281;1295;3027882;-77
2023/09/19 00:22:53;;;;;;;12.50;7.00;;;;;;;19.34;43.61;100041.40;79631;1296;3012661;-78
2023/09/19 00:25:20;;;;;;;11.60;7.00;;;;;;;19.31;43.77;100040.56;79690;1298;3011643;-75
2023/09/19 00:27:49;;;;;;;10.10;6.50;;;;;;;19.28;44.36;100042.39;78403;1298;3027181;-74
2023/09/19 00:30:19;;;;;;;14.90;7.20;;;;;;;19.26;44.70;100046.48;79736;1298;3011540;-77
2023/09/19 00:32:48;;;;;;;16.00;8.00;;;;;;;19.23;45.17;100042.70;78412;1298;3051819;-77
2023/09/19 00:35:15;;;;;;;16.20;8.60;;;;;;;19.20;44.94;100038.33;79553;1298;3011688;-76
2023/09/19 00:37:42;;;;;;;16.00;7.30;;;;;;;19.17;45.00;100040.88;79694;1294;3011633;-75
2023/09/19 00:40:15;;;;;;;14.00;7.10;;;;;;;19.13;44.96;100040.35;78335;1295;3048855;-76
2023/09/19 00:42:42;;;;;;;11.70;7.10;;;;;;;19.10;44.80;100038.98;79616;1294;3013282;-76
2023/09/19 00:45:11;;;;;;;13.80;6.90;;;;;;;19.08;45.15;100039.38;78371;1297;3025765;-77
2023/09/19 00:47:41;;;;;;;12.90;7.20;;;;;;;19.05;44.97;100035.00;79613;1297;3011619;-74
2023/09/19 00:50:10;;;;;;;17.40;7.40;;;;;;;19.02;44.86;100033.14;78274;1301;3026546;-76
2023/09/19 00:52:38;;;;;;;15.80;7.90;;;;;;;19.00;45.57;100030.86;79468;1299;3012963;-75
2023/09/19 00:55:07;;;;;;;16.20;8.60;;;;;;;18.97;45.81;100030.73;78301;1295;3026613;-75
2023/09/19 00:57:34;;;;;;;14.20;8.20;;;;;;;18.93;45.83;100028.92;79584;1294;3011915;-75
2023/09/19 01:00:05;;;;;;;14.00;7.50;;;;;;;18.92;45.52;100026.59;79660;1295;3013435;-76
2023/09/19 01:02:34;;;;;;;16.20;7.40;;;;;;;18.90;45.37;100027.25;78513;1295;3050411;-75
2023/09/19 01:05:01;;;;;;;11.50;6.90;;;;;;;18.88;45.34;100027.25;79596;1299;3013960;-75
2023/09/19 01:07:31;;;;;;;13.60;7.30;;;;;;;18.86;45.49;100024.88;79674;1295;3011652;-75
2023/09/19 01:09:59;;;;;;;15.10;7.30;;;;;;;18.84;45.43;100028.60;78243;1297;3051390;-76
2023/09/19 01:12:45;;;;;;;19.60;9.00;;;;;;;18.79;46.23;100028.33;79807;1295;3013268;-74
2023/09/19 01:15:21;;;;;;;16.30;9.00;;;;;;;18.71;47.71;100030.27;78397;1295;3053117;-77
2023/09/19 01:17:58;;;;;;;18.00;10.20;;;;;;;18.57;49.77;100038.20;78405;1298;3050730;-74
2023/09/19 01:20:47;;;;;;;19.50;9.10;;;;;;;18.45;50.65;100034.98;78429;1298;3053084;-75
2023/09/19 01:23:23;;;;;;;16.10;9.60;;;;;;;18.42;49.75;100033.44;78277;1301;3052974;-74
2023/09/19 01:26:12;;;;;;;18.70;10.40;;;;;;;18.41;50.39;100031.55;78426;1298;3067629;-77
2023/09/19 01:28:54;;;;;;;19.10;9.80;;;;;;;18.37;51.38;100030.00;78312;1300;3051579;-77
2023/09/19 01:31:23;;;;;;;19.80;10.10;;;;;;;18.30;52.10;100028.28;78459;1295;3056145;-77
2023/09/19 01:33:57;;;;;;;17.90;9.50;;;;;;;18.25;50.88;100029.73;79775;1298;3013563;-77
2023/09/19 01:36:29;;;;;;;15.30;9.10;;;;;;;18.22;50.54;100029.06;78476;1294;3053090;-75
2023/09/19 01:38:58;;;;;;;16.60;9.20;;;;;;;18.19;51.09;100026.34;79689;1296;3011788;-75
2023/09/19 01:41:33;;;;;;;17.00;8.90;;;;;;;18.17;50.89;100024.73;78527;1295;3051313;-75
2023/09/19 01:44:03;;;;;;;16.40;8.90;;;;;;;18.16;49.96;100022.50;80587;1301;3011453;-75
2023/09/19 01:46:36;;;;;;;13.70;7.70;;;;;;;18.15;48.52;100024.03;81286;1298;3013787;-74
2023/09/19 01:49:09;;;;;;;14.60;7.60;;;;;;;18.14;47.92;100022.37;80259;1295;3068651;-75
2023/09/19 01:52:19;;;;;;;14.90;6.80;;;;;;;18.10;47.12;100023.14;80814;1294;3011555;-74
2023/09/19 01:54:55;;;;;;;13.10;7.50;;;;;;;18.04;46.61;100023.69;78561;1302;3052762;-76
2023/09/19 01:57:30;;;;;;;12.70;5.90;;;;;;;17.99;45.78;100019.17;78063;1304;3056403;-77
2023/09/19 02:00:06;;;;;;;14.10;5.20;;;;;;;18.00;45.17;100014.28;78887;1294;3012498;-74
2023/09/19 02:02:44;;;;;;;11.60;5.10;;;;;;;18.04;45.03;100014.80;78179;1300;3049190;-76
2023/09/19 02:05:12;;;;;;;9.00;4.70;;;;;;;18.08;44.69;100014.83;79558;1296;3013176;-77
2023/09/19 02:07:40;;;;;;;10.60;4.90;;;;;;;18.10;44.71;100014.62;78547;1295;3049552;-77
2023/09/19 02:10:07;;;;;;;8.40;4.80;;;;;;;18.11;44.49;100012.10;79615;1299;3013044;-78
2023/09/19 02:12:38;;;;;;;6.90;4.60;;;;;;;18.12;44.76;100011.16;79057;1296;3011571;-75
2023/09/19 02:15:07;;;;;;;11.40;5.20;;;;;;;18.14;44.61;100013.13;79580;1295;3013219;-77
2023/09/19 02:17:34;;;;;;;7.90;4.50;;;;;;;18.14;44.47;100012.06;79639;1298;3011571;-77
2023/09/19 02:20:03;;;;;;;6.50;4.30;;;;;;;18.14;44.34;100010.11;78306;1298;3049539;-74
2023/09/19 02:22:31;;;;;;;8.10;4.50;;;;;;;18.15;44.36;100008.59;79601;1295;3013250;-75
2023/09/19 02:25:00;;;;;;;7.30;4.50;;;;;;;18.16;44.22;100003.71;79547;1294;3011576;-76
2023/09/19 02:27:28;;;;;;;8.50;4.30;;;;;;;18.18;43.82;100004.05;78290;1297;3052275;-76
2023/09/19 02:29:55;;;;;;;8.10;4.20;;;;;;;18.21;43.91;100003.11;79560;1295;3013239;-73
2023/09/19 02:32:22;;;;;;;8.20;4.60;;;;;;;18.23;43.77;100004.37;79506;1298;3011810;-74
2023/09/19 02:34:51;;;;;;;5.20;4.10;;;;;;;18.25;43.47;100007.39;78094;1294;3050282;-75
2023/09/19 02:37:19;;;;;;;6.70;4.10;;;;;;;18.24;43.40;100004.95;79558;1300;3013353;-76
2023/09/19 02:39:45;;;;;;;9.50;3.90;;;;;;;18.26;43.46;100005.38;79551;1294;3011652;-76
2023/09/19 02:42:13;;;;;;;8.50;4.00;;;;;;;18.25;43.33;100004.70;78363;1300;3051736;-75
2023/09/19 02:44:40;;;;;;;7.80;4.20;;;;;;;18.29;43.55;100005.63;79549;1300;3018749;-74
2023/09/19 02:47:06;;;;;;;9.20;4.20;;;;;;;18.33;43.40;100001.39;79530;1295;3012916;-75
2023/09/19 02:49:34;;;;;;;7.50;3.90;;;;;;;18.38;43.26;100005.77;78290;1295;3026337;-75
2023/09/19 02:52:02;;;;;;;6.10;3.60;;;;;;;18.40;43.15;100004.90;79471;1298;3018723;-75
2023/09/19 02:54:29;;;;;;;7.80;4.00;;;;;;;18.42;43.04;100009.17;79417;1299;3013605;-75
2023/09/19 02:56:59;;;;;;;6.70;3.60;;;;;;;18.43;43.09;100008.16;78360;1298;3052659;-74
2023/09/19 02:59:25;;;;;;;5.70;3.60;;;;;;;18.44;43.28;100012.71;79534;1295;3011675;-74
2023/09/19 03:01:54;;;;;;;5.20;3.50;;;;;;;18.45;43.19;100013.32;79437;1300;3011682;-74
2023/09/19 03:04:22;;;;;;;7.10;3.20;;;;;;;18.46;42.80;100013.41;78289;1295;3048918;-75
2023/09/19 03:06:51;;;;;;;8.50;4.30;;;;;;;18.50;42.91;100014.15;79524;1301;3012896;-78
2023/09/19 03:09:18;;;;;;;4.60;3.40;;;;;;;18.52;42.91;100012.59;79550;1297;3013469;-75
2023/09/19 03:11:47;;;;;;;8.80;4.20;;;;;;;18.53;43.06;100017.29;78309;1294;3052626;-75
2023/09/19 03:14:15;;;;;;;5.30;3.80;;;;;;;18.54;43.45;100013.48;79679;1295;3014991;-76
2023/09/19 03:16:42;;;;;;;5.60;4.00;;;;;;;18.54;43.32;100018.19;79545;1294;3011853;-75
2023/09/19 03:19:12;;;;;;;8.60;4.20;;;;;;;18.54;42.84;100018.08;78241;1300;3049669;-75
2023/09/19 03:21:38;;;;;;;6.20;3.90;;;;;;;18.54;42.98;100021.09;79642;1295;3013503;-76
2023/09/19 03:24:06;;;;;;;6.70;3.50;;;;;;;18.54;43.01;100020.02;79789;1295;3011606;-75
2023/09/19 03:26:34;;;;;;;7.50;3.80;;;;;;;18.55;42.99;100020.77;78716;1299;3053781;-76
2023/09/19 03:29:06;;;;;;;5.60;3.70;;;;;;;18.57;42.95;100023.84;79779;1294;3013212;-74
2023/09/19 03:31:36;;;;;;;7.70;3.70;;;;;;;18.59;42.83;100021.86;78524;1294;3056583;-77
2023/09/19 03:34:04;;;;;;;5.60;3.30;;;;;;;18.61;42.77;100025.42;79871;1295;3011619;-76
2023/09/19 03:36:33;;;;;;;9.00;3.90;;;;;;;18.63;42.62;100023.85;79312;1298;3011747;-74
2023/09/19 03:38:59;;;;;;;5.90;3.50;;;;;;;18.66;42.57;100024.55;79798;1299;3013607;-75
2023/09/19 03:41:26;;;;;;;8.00;4.40;;;;;;;18.68;42.64;100024.34;79696;1294;3013164;-79
2023/09/19 03:43:54;;;;;;;7.00;3.90;;;;;;;18.69;42.99;100024.23;78416;1299;3026745;-77
2023/09/19 03:46:22;;;;;;;8.20;4.00;;;;;;;18.70;42.72;100028.95;79580;1295;3018578;-78
2023/09/19 03:48:50;;;;;;;6.60;4.10;;;;;;;18.71;42.80;100022.33;79518;1294;3013474;-75
2023/09/19 03:51:18;;;;;;;7.20;4.10;;;;;;;18.69;43.39;100025.30;78433;1295;3052602;-75
2023/09/19 03:53:44;;;;;;;6.00;4.50;;;;;;;18.70;43.63;100018.51;79832;1299;3013040;-77
2023/09/19 03:56:11;;;;;;;9.60;4.40;;;;;;;18.68;43.72;100020.77;79828;1294;3011647;-77
2023/09/19 03:58:39;;;;;;;5.70;4.40;;;;;;;18.65;44.26;100017.84;78418;1297;3026251;-77
2023/09/19 04:01:06;;;;;;;5.30;4.30;;;;;;;18.62;44.17;100022.89;79597;1295;3012844;-76
2023/09/19 04:03:46;;;;;;;9.70;4.30;;;;;;;18.58;44.16;100023.21;79754;1294;3011656;-75
2023/09/19 04:06:16;;;;;;;6.50;4.00;;;;;;;18.56;44.09;100024.80;78536;1295;3054252;-74
2023/09/19 04:08:43;;;;;;;12.10;4.60;;;;;;;18.55;44.28;100020.83;79603;1299;3013493;-77
2023/09/19 04:11:10;;;;;;;8.30;4.30;;;;;;;18.55;44.49;100028.28;79702;1294;3011735;-76
2023/09/19 04:13:38;;;;;;;7.70;4.90;;;;;;;18.55;44.43;100024.73;78651;1297;3069144;-73
2023/09/19 04:16:05;;;;;;;7.40;4.20;;;;;;;18.56;44.20;100027.10;79552;1295;3013377;-73
2023/09/19 04:18:33;;;;;;;7.80;4.70;;;;;;;18.57;44.06;100027.02;79636;1294;3011893;-73
2023/09/19 04:21:04;;;;;;;8.50;4.90;;;;;;;18.58;43.86;100027.31;78801;1295;3052077;-77
2023/09/19 04:23:30;;;;;;;6.50;4.40;;;;;;;18.60;43.55;100026.07;79964;1296;3013541;-77
2023/09/19 04:25:58;;;;;;;12.50;4.60;;;;;;;18.60;43.19;100026.64;79855;1298;3011856;-75
2023/09/19 04:28:27;;;;;;;5.80;4.00;;;;;;;18.60;43.36;100022.31;78790;1296;3069750;-75
2023/09/19 04:30:55;;;;;;;5.10;3.80;;;;;;;18.62;43.38;100023.09;79715;1295;3013373;-75
2023/09/19 04:33:21;;;;;;;11.20;4.80;;;;;;;18.63;42.92;100023.33;79769;1298;3013553;-75
2023/09/19 04:35:50;;;;;;;10.60;4.40;;;;;;;18.62;43.00;100024.17;78913;1295;3052927;-74
2023/09/19 04:38:20;;;;;;;7.30;4.30;;;;;;;18.64;43.27;100022.05;79761;1298;3013918;-75
2023/09/19 04:40:48;;;;;;;10.50;4.20;;;;;;;18.63;43.42;100022.44;79590;1295;3014489;-73
2023/09/19 04:43:17;;;;;;;10.30;5.00;;;;;;;18.66;43.33;100022.74;79952;1298;3013063;-76
2023/09/19 04:45:43;;;;;;;6.40;4.40;;;;;;;18.70;43.45;100019.56;79843;1295;3011890;-77
2023/09/19 04:48:11;;;;;;;6.80;4.50;;;;;;;18.74;43.44;100021.46;78527;1296;3056217;-79
2023/09/19 04:50:38;;;;;;;12.60;5.10;;;;;;;18.79;43.84;100017.52;79639;1296;3019265;-75
2023/09/19 04:53:05;;;;;;;11.90;5.10;;;;;;;18.83;43.63;100021.96;79617;1296;3011763;-78
2023/09/19 04:55:34;;;;;;;9.50;5.10;;;;;;;18.86;43.90;100023.00;78389;1294;3026785;-76
2023/09/19 04:58:00;;;;;;;12.20;5.20;;;;;;;18.87;44.64;100023.95;79701;1297;3013371;-74
2023/09/19 05:00:30;;;;;;;11.00;5.90;;;;;;;18.88;45.23;100021.54;79549;1298;3013109;-74
2023/09/19 05:02:58;;;;;;;11.30;6.10;;;;;;;18.90;45.46;100021.04;78585;1297;3055385;-74
2023/09/19 05:05:26;;;;;;;15.50;6.20;;;;;;;18.94;44.98;100025.31;79683;1298;3013063;-77
2023/09/19 05:07:55;;;;;;;13.70;5.80;;;;;;;19.00;44.93;100025.55;79730;1296;3011388;-73
2023/09/19 05:10:23;;;;;;;15.30;5.90;;;;;;;19.04;45.36;100026.23;78281;1300;3054739;-75
2023/09/19 05:12:56;;;;;;;10.70;5.90;;;;;;;19.08;45.02;100025.00;79878;1297;3012812;-75
2023/09/19 05:15:25;;;;;;;24.60;6.90;;;;;;;19.11;45.35;100025.41;78569;1298;3051812;-75
2023/09/19 05:17:54;;;;;;;19.80;6.30;;;;;;;19.14;45.50;100026.25;79732;1295;3012939;-75
2023/09/19 05:20:29;;;;;;;15.40;7.00;;;;;;;19.17;45.86;100029.02;79759;1296;3011965;-76
2023/09/19 05:23:01;;;;;;;14.70;6.50;;;;;;;19.19;46.33;100030.84;78518;1296;3050486;-75
2023/09/19 05:25:29;;;;;;;;;;;;;;;19.22;46.90;100024.10;79638;1299;3012122;-76
2023/09/19 05:28:00;;;;;;;14.10;8.00;;;;;;;19.19;48.19;100029.86;78649;1298;3052364;-74
2023/09/19 05:30:29;;;;;;;13.20;7.50;;;;;;;19.22;48.70;100033.92;79813;1296;3013069;-76
2023/09/19 05:32:57;;;;;;;19.30;7.80;;;;;;;19.24;49.27;100033.90;78572;1296;3051773;-73
2023/09/19 05:35:27;;;;;;;13.30;7.90;;;;;;;19.26;50.44;100031.20;79760;1298;3013811;-74
2023/09/19 05:37:57;;;;;;;20.40;8.10;;;;;;;19.26;50.88;100033.35;79191;1295;3012826;-76
2023/09/19 05:40:25;;;;;;;15.30;8.20;;;;;;;19.25;50.96;100037.38;79706;1296;3013492;-76
2023/09/19 05:42:52;;;;;;;17.90;7.80;;;;;;;19.26;51.23;100033.02;79801;1295;3012159;-74
2023/09/19 05:45:22;;;;;;;16.50;8.10;;;;;;;19.24;53.19;100036.01;78516;1298;3053705;-74
2023/09/19 05:47:50;;;;;;;17.60;9.10;;;;;;;19.23;53.56;100033.29;79458;1295;3013014;-76
2023/09/19 05:50:19;;;;;;;18.40;8.60;;;;;;;19.23;54.57;100037.02;78467;1298;3026368;-75
2023/09/19 05:52:52;;;;;;;15.60;9.40;;;;;;;19.21;55.10;100035.91;79841;1298;3013724;-76
2023/09/19 05:55:20;;;;;;;17.60;8.80;;;;;;;19.24;55.18;100034.81;78345;1298;3053434;-74
2023/09/19 05:57:52;;;;;;;15.80;7.80;;;;;;;19.27;54.64;100032.55;79692;1298;3012967;-76
2023/09/19 06:00:22;;;;;;;14.20;8.90;;;;;;;19.37;54.17;100037.38;78600;1295;3052604;-76
2023/09/19 06:02:54;;;;;;;16.20;9.00;;;;;;;19.43;54.19;100036.30;79769;1295;3013362;-76
2023/09/19 06:05:27;;;;;;;21.10;8.00;;;;;;;19.51;53.67;100030.83;78480;1298;3051904;-74
2023/09/19 06:07:55;;;;;;;16.60;8.50;;;;;;;19.59;53.74;100030.95;79730;1296;3011680;-75
2023/09/19 06:10:23;;;;;;;16.90;7.60;;;;;;;19.69;52.74;100031.34;78737;1296;3048701;-74
2023/09/19 06:12:50;;;;;;;15.40;7.60;;;;;;;19.77;52.32;100032.88;79886;1297;3011908;-75
2023/09/19 06:15:18;;;;;;;19.20;8.30;;;;;;;19.89;51.78;100033.31;79982;1296;3011742;-73
2023/09/19 06:17:47;;;;;;;18.30;8.00;;;;;;;20.00;51.74;100035.14;78647;1295;3052725;-72
2023/09/19 06:20:14;;;;;;;17.70;8.10;;;;;;;20.10;51.45;100032.24;79991;1298;3015885;-72
2023/09/19 06:22:41;;;;;;;20.80;8.90;;;;;;;20.20;51.20;100026.23;79913;1296;3013269;-77
2023/09/19 06:25:11;;;;;;;19.60;8.70;;;;;;;20.31;51.08;100024.48;78800;1298;3048677;-79
2023/09/19 06:27:42;;;;;;;15.30;8.40;;;;;;;20.41;51.00;100023.76;79768;1296;3013630;-76
2023/09/19 06:30:14;;;;;;;19.90;8.20;;;;;;;20.49;51.21;100026.57;78624;1298;3050095;-77
2023/09/19 06:32:43;;;;;;;18.50;7.80;;;;;;;20.54;51.61;100028.42;79802;1295;3011606;-75
2023/09/19 06:35:12;;;;;;;22.80;8.50;;;;;;;20.62;50.87;100029.08;78965;1298;3051844;-75
2023/09/19 06:37:40;;;;;;;24.40;8.10;;;;;;;20.72;50.90;100030.12;80562;1298;3012970;-74
2023/09/19 06:40:14;;;;;;;15.20;7.80;;;;;;;20.83;50.44;100031.44;80775;1296;3011501;-70
2023/09/19 06:42:47;;;;;;;22.40;8.90;;;;;;;20.94;50.21;100036.09;79423;1296;3048050;-72
2023/09/19 06:45:17;;;;;;;18.30;8.30;;;;;;;21.03;50.30;100041.08;80646;1295;3011741;-70
2023/09/19 06:47:49;;;;;;;20.00;8.40;;;;;;;21.13;50.23;100041.73;78861;1298;3049981;-73
2023/09/19 06:50:18;;;;;;;17.30;8.30;;;;;;;21.20;49.87;100041.47;80030;1296;3011625;-75
2023/09/19 06:52:48;;;;;;;26.10;8.60;;;;;;;21.29;50.58;100046.29;77973;1296;3052335;-74
2023/09/19 06:55:19;;;;;;;16.20;8.70;;;;;;;21.36;50.25;100049.04;78239;1301;3050718;-75
2023/09/19 06:57:46;;;;;;;20.10;8.20;;;;;;;21.44;50.28;100050.20;79964;1296;3012751;-72
2023/09/19 07:00:18;;;;;;;12.10;8.10;;;;;;;21.52;49.77;100052.65;78598;1295;3027837;-74
2023/09/19 07:02:45;;;;;;;18.00;8.00;;;;;;;21.60;49.67;100050.48;79689;1297;3011612;-75
2023/09/19 07:05:14;;;;;;;16.40;7.50;;;;;;;21.68;49.54;100049.15;79100;1298;3011891;-74
2023/09/19 07:07:40;;;;;;;12.20;7.40;;;;;;;21.74;49.47;100047.42;79737;1298;3012944;-73
2023/09/19 07:10:10;;;;;;;13.00;7.20;;;;;;;21.83;49.50;100045.20;79788;1297;3013636;-72
2023/09/19 07:13:04;;;;;;;;;;;;;;;21.91;48.82;100040.98;78717;1298;3051626;-76
2023/09/19 07:15:38;;;;;;;16.30;6.50;;;;;;;21.93;48.90;100046.34;79858;1298;3012804;-75
2023/09/19 07:18:06;;;;;;;9.10;6.80;;;;;;;22.01;48.47;100043.73;78522;1298;3052699;-74
2023/09/19 07:20:34;;;;;;;17.40;6.80;;;;;;;22.12;48.35;100045.51;79759;1298;3018529;-74
2023/09/19 07:23:00;;;;;;;12.90;7.30;;;;;;;22.20;48.60;100042.70;80310;1295;3013944;-77
2023/09/19 07:25:30;;;;;;;16.60;7.60;;;;;;;22.27;49.14;100039.14;78629;1297;3067952;-76
2023/09/19 07:27:59;;;;;;;14.00;8.00;;;;;;;22.37;49.84;100043.27;79793;1295;3013388;-75
2023/09/19 07:30:27;;;;;;;11.50;7.70;;;;;;;22.41;50.15;100039.91;78721;1295;3056534;-76
2023/09/19 07:32:54;;;;;;;19.90;7.90;;;;;;;22.48;50.61;100038.05;79953;1296;3013173;-75
2023/09/19 07:35:22;;;;;;;17.40;8.00;;;;;;;22.57;50.33;100037.84;79583;1301;3011419;-76
2023/09/19 07:37:51;;;;;;;19.20;7.60;;;;;;;22.67;50.41;100033.92;78483;1296;3052214;-75
2023/09/19 07:40:20;;;;;;;18.00;7.80;;;;;;;22.78;49.78;100033.73;79824;1297;3013093;-76
2023/09/19 07:42:50;;;;;;;18.20;8.10;;;;;;;22.86;49.95;100026.80;79218;1295;3013435;-75
2023/09/19 07:45:19;;;;;;;19.90;8.40;;;;;;;22.90;47.94;100022.94;79799;1295;3013333;-76
2023/09/19 07:47:49;;;;;;;12.90;7.40;;;;;;;22.98;47.12;100021.48;79467;1293;3013658;-75
2023/09/19 07:50:19;;;;;;;10.50;6.10;;;;;;;23.02;46.18;100017.67;79953;1298;3012805;-74
2023/09/19 07:52:48;;;;;;;10.40;5.60;;;;;;;23.08;44.30;100017.55;78622;1298;3051116;-75
2023/09/19 07:55:17;;;;;;;8.10;5.50;;;;;;;23.13;43.54;100018.27;79709;1297;3013026;-74
2023/09/19 07:57:46;;;;;;;8.40;5.40;;;;;;;23.22;44.03;100020.02;79209;1298;3013336;-76
2023/09/19 08:00:14;;;;;;;11.40;5.50;;;;;;;23.31;43.84;100012.90;80041;1296;3013727;-77
2023/09/19 08:02:41;;;;;;;9.10;5.90;;;;;;;23.37;43.68;100009.92;79854;1294;3012156;-73
2023/09/19 08:05:09;;;;;;;14.00;6.10;;;;;;;23.37;43.93;100007.75;78527;1298;3048800;-73
2023/09/19 08:07:37;;;;;;;9.60;5.80;;;;;;;23.42;44.25;100012.91;79713;1296;3013231;-75
2023/09/19 08:10:13;;;;;;;12.10;5.60;;;;;;;23.53;44.03;100005.52;79832;1298;3013132;-78
2023/09/19 08:12:46;;;;;;;13.00;6.00;;;;;;;23.60;42.62;100002.83;78746;1298;3051870;-75
2023/09/19 08:15:16;;;;;;;13.00;6.20;;;;;;;23.67;42.40;99998.18;79827;1297;3011748;-75
2023/09/19 08:17:45;;;;;;;11.40;6.20;;;;;;;23.78;42.31;99998.05;78588;1293;3051051;-75
2023/09/19 08:20:18;;;;;;;16.50;6.20;;;;;;;23.89;42.39;99997.73;79797;1293;3019095;-74
2023/09/19 08:22:48;;;;;;;9.30;6.10;;;;;;;24.00;41.53;99993.52;78693;1295;3053321;-76
2023/09/19 08:25:17;;;;;;;11.50;6.60;;;;;;;24.09;41.08;99990.96;79908;1297;3014659;-75
2023/09/19 08:27:48;;;;;;;10.60;6.30;;;;;;;24.14;40.26;99987.52;78625;1298;3053369;-75
2023/09/19 08:30:15;;;;;;;11.30;6.00;;;;;;;24.21;40.47;99984.69;79856;1295;3011934;-74
2023/09/19 08:32:46;;;;;;;12.80;6.00;;;;;;;24.29;39.87;99982.26;79648;1293;3011823;-76
2023/09/19 08:35:13;;;;;;;13.10;5.80;;;;;;;24.36;39.26;99978.31;80098;1295;3011542;-75
2023/09/19 08:37:39;;;;;;;15.40;6.20;;;;;;;24.43;38.12;99977.20;79779;1293;3011704;-75
2023/09/19 08:40:12;;;;;;;9.40;6.00;;;;;;;24.50;37.79;99976.11;78766;1298;3048786;-75
2023/09/19 08:42:53;;;;;;;9.00;5.30;;;;;;;24.56;37.33;99972.23;79971;1297;3011714;-75
2023/09/19 08:45:23;;;;;;;9.00;5.50;;;;;;;24.63;37.20;99973.95;78708;1298;3053212;-75
2023/09/19 08:48:11;;;;;;;9.80;5.20;;;;;;;24.72;37.62;99973.84;79734;1294;3013638;-76
2023/09/19 08:51:03;;;;;;;8.00;4.40;;;;;;;24.74;35.73;99973.46;78311;1301;3052070;-76
2023/09/19 08:53:51;;;;;;;5.50;4.30;;;;;;;24.71;33.40;99976.66;78675;1298;3056896;-75
2023/09/19 08:56:22;;;;;;;5.60;4.70;;;;;;;24.71;32.53;99969.89;78496;1293;3049208;-75
2023/09/19 08:58:53;;;;;;;5.90;4.20;;;;;;;24.75;32.29;99966.34;79845;1298;3011731;-76
2023/09/19 09:01:27;;;;;;;9.10;4.70;;;;;;;24.78;32.67;99961.02;78755;1298;3050070;-75
2023/09/19 09:03:54;;;;;;;8.80;5.20;;;;;;;24.54;31.54;99962.54;79687;1298;3011613;-76
2023/09/19 09:06:23;;;;;;;7.30;4.60;;;;;;;24.45;32.48;99963.16;78529;1297;3052524;-75
2023/09/19 09:08:51;;;;;;;9.80;4.90;;;;;;;24.64;32.57;99956.81;79909;1298;3013009;-76
2023/09/19 09:11:17;;;;;;;7.50;4.60;;;;;;;24.81;33.23;99953.15;80040;1293;3011660;-74
2023/09/19 09:13:45;;;;;;;8.80;5.30;;;;;;;24.96;33.33;99950.73;78688;1298;3050267;-78
2023/09/19 09:16:13;;;;;;;9.50;4.80;;;;;;;25.10;32.86;99952.91;79874;1298;3013084;-76
2023/09/19 09:18:41;;;;;;;7.80;5.00;;;;;;;25.19;32.31;99950.24;79984;1297;3011686;-73
2023/09/19 09:21:09;;;;;;;9.70;5.00;;;;;;;25.16;32.99;99952.59;78555;1297;3053369;-78
2023/09/19 09:23:35;;;;;;;11.40;4.90;;;;;;;25.24;32.44;99950.55;79945;1292;3012667;-76
2023/09/19 09:26:06;;;;;;;7.80;4.60;;;;;;;25.37;32.28;99947.52;80188;1298;3011960;-77
2023/09/19 09:28:35;;;;;;;8.50;4.60;;;;;;;25.50;32.35;99942.61;78562;1298;3049233;-68
2023/09/19 09:31:09;;;;;;;10.30;5.40;;;;;;;25.54;32.07;99938.52;80104;1298;3011358;-76
2023/09/19 09:33:37;;;;;;;7.00;4.80;;;;;;;25.53;32.21;99944.58;78800;1296;3052812;-75
2023/09/19 09:36:05;;;;;;;9.90;4.30;;;;;;;25.63;31.46;99936.90;79853;1299;3019182;-75
2023/09/19 09:38:46;;;;;;;10.30;5.00;;;;;;;25.71;31.45;99935.50;79969;1301;3011694;-76
2023/09/19 09:41:26;;;;;;;9.20;4.70;;;;;;;25.79;31.77;99930.97;78608;1298;3051411;-74
2023/09/19 09:43:54;;;;;;;7.60;5.10;;;;;;;25.88;32.02;99929.73;78569;1293;3056471;-76
2023/09/19 09:49:19;;;;;;;7.70;4.80;;;;;;;25.92;30.92;99924.63;79853;1298;3013140;-75
2023/09/19 09:52:16;;;;;;;14.10;5.30;;;;;;;25.74;31.01;99925.95;78595;1298;3053148;-75
2023/09/19 09:55:01;;;;;;;10.20;5.10;;;;;;;25.81;31.54;99918.90;78627;1298;3052826;-77
2023/09/19 09:57:30;;;;;;;10.20;5.00;;;;;;;25.63;31.56;99914.84;78675;1292;3070092;-76
2023/09/19 09:59:59;;;;;;;8.70;4.90;;;;;;;25.77;31.99;99920.28;79918;1293;3013046;-75
2023/09/19 10:02:36;;;;;;;13.90;4.60;;;;;;;25.88;31.96;99913.56;79830;1295;3011882;-75
2023/09/19 10:07:53;;;;;;;10.90;4.60;;;;;;;26.09;31.76;99915.80;78893;1298;3050654;-77
2023/09/19 10:13:15;;;;;;;7.00;4.70;;;;;;;26.29;30.74;99908.79;78650;1298;3052540;-76
2023/09/19 10:15:54;;;;;;;9.00;4.80;;;;;;;26.43;31.09;99906.91;79802;1298;3011265;-77
2023/09/19 10:18:24;;;;;;;6.50;4.70;;;;;;;26.43;31.24;99900.19;78569;1292;3051757;-76
2023/09/19 10:21:13;;;;;;;7.50;4.80;;;;;;;26.41;30.98;99902.85;80939;1295;3011434;31
2023/09/19 10:23:42;;;;;;;7.50;5.00;;;;;;;26.44;30.60;99898.35;78335;1301;3048438;-76
2023/09/19 10:26:09;;;;;;;8.40;4.60;;;;;;;26.46;30.98;99893.05;79285;1303;3012036;-77
2023/09/19 10:28:38;;;;;;;9.90;5.30;;;;;;;26.53;30.28;99889.71;79524;1301;3011546;-79
2023/09/19 10:31:09;;;;;;;14.80;5.10;;;;;;;26.57;30.32;99890.94;78091;1303;3052796;-77
2023/09/19 10:33:37;;;;;;;7.40;4.90;;;;;;;26.66;30.40;99892.21;79200;1305;3012852;-77
2023/09/19 10:36:08;;;;;;;9.70;4.90;;;;;;;26.69;30.54;99890.43;78125;1303;3026819;-79
2023/09/19 10:38:35;;;;;;;10.80;5.00;;;;;;;26.74;30.76;99882.98;79232;1300;3013490;-78
2023/09/19 10:41:03;;;;;;;10.10;4.70;;;;;;;26.76;31.01;99882.66;78063;1303;3026788;-76
2023/09/19 10:43:34;;;;;;;11.30;4.80;;;;;;;26.77;31.27;99883.89;79244;1301;3018798;-76
2023/09/19 10:46:05;;;;;;;13.00;5.10;;;;;;;26.68;31.02;99883.08;77995;1303;3051319;-77
2023/09/19 10:48:32;;;;;;;8.40;5.00;;;;;;;26.76;31.04;99886.19;79322;1303;3013535;-76
2023/09/19 10:51:13;;;;;;;9.60;4.60;;;;;;;26.60;31.38;99883.61;78129;1301;3026323;-77
2023/09/19 10:53:50;;;;;;;9.60;5.10;;;;;;;26.49;31.06;99883.98;78105;1300;3051357;-75
2023/09/19 10:56:36;;;;;;;7.70;4.90;;;;;;;26.53;31.00;99881.50;78166;1301;3056649;-76
2023/09/19 10:59:12;;;;;;;5.60;4.10;;;;;;;26.65;31.08;99877.83;78312;1300;3050308;-76
2023/09/19 11:01:56;;;;;;;9.00;4.90;;;;;;;26.82;30.67;99873.04;78248;1301;3052977;-75
2023/09/19 11:04:32;;;;;;;9.10;4.60;;;;;;;26.94;30.82;99866.95;78191;1306;3049881;-76
2023/09/19 11:07:11;;;;;;;9.40;4.50;;;;;;;26.97;30.60;99865.34;79027;1303;3011621;-75
2023/09/19 11:09:48;;;;;;;7.50;4.10;;;;;;;26.92;30.04;99865.26;78467;1303;3053191;-76
2023/09/19 11:12:40;;;;;;;7.10;5.00;;;;;;;26.60;30.97;99867.30;78172;1303;3052311;-74
2023/09/19 11:15:12;;;;;;;7.10;4.60;;;;;;;26.55;30.98;99868.86;78179;1299;3069547;-77
2023/09/19 11:17:45;;;;;;;7.20;4.70;;;;;;;26.46;31.48;99861.98;79370;1303;3011418;-75
2023/09/19 11:22:58;;;;;;;7.40;4.50;;;;;;;26.59;30.96;99854.48;79460;1301;3020537;-77
2023/09/19 11:25:30;;;;;;;10.40;4.20;;;;;;;26.87;30.84;99849.95;78108;1303;3049947;-77
2023/09/19 11:28:14;;;;;;;9.20;4.70;;;;;;;27.04;31.17;99846.35;79408;1303;3011595;-77
2023/09/19 11:30:50;;;;;;;7.90;4.50;;;;;;;27.02;30.71;99842.80;78246;1303;3052196;-77
2023/09/19 11:36:03;;;;;;;7.90;4.10;;;;;;;27.04;30.40;99839.05;79416;1300;3069053;-77